sensor_id;sensor_type;location;lat;lon;timestamp;P1;durP1;ratioP1;P2;durP2;ratioP2
23596;SDS011;40226;50.874;4.394;2023-05-07T00:00:02;10.80;;;6.10;;
23596;SDS011;40226;50.874;4.394;2023-05-07T00:02:32;13.48;;;6.35;;
23596;SDS011;40226;50.874;4.394;2023-05-07T00:04:57;15.02;;;5.65;;
23596;SDS011;40226;50.874;4.394;2023-05-07T00:07:23;10.82;;;5.80;;
23596;SDS011;40226;50.874;4.394;2023-05-07T00:09:49;13.05;;;5.95;;
23596;SDS011;40226;50.874;4.394;2023-05-07T00:12:14;12.80;;;6.10;;
23596;SDS011;40226;50.874;4.394;2023-05-07T00:14:40;12.40;;;5.68;;
23596;SDS011;40226;50.874;4.394;2023-05-07T00:17:06;11.18;;;6.25;;
23596;SDS011;40226;50.874;4.394;2023-05-07T00:19:32;13.15;;;6.28;;
23596;SDS011;40226;50.874;4.394;2023-05-07T00:21:57;14.88;;;5.97;;
23596;SDS011;40226;50.874;4.394;2023-05-07T00:24:23;13.35;;;6.10;;
23596;SDS011;40226;50.874;4.394;2023-05-07T00:26:49;13.50;;;6.07;;
23596;SDS011;40226;50.874;4.394;2023-05-07T00:29:15;12.13;;;7.00;;
23596;SDS011;40226;50.874;4.394;2023-05-07T00:31:41;10.43;;;6.05;;
23596;SDS011;40226;50.874;4.394;2023-05-07T00:34:06;14.82;;;6.40;;
23596;SDS011;40226;50.874;4.394;2023-05-07T00:36:32;12.60;;;5.70;;
23596;SDS011;40226;50.874;4.394;2023-05-07T00:38:59;12.50;;;5.88;;
23596;SDS011;40226;50.874;4.394;2023-05-07T00:41:25;13.30;;;6.30;;
23596;SDS011;40226;50.874;4.394;2023-05-07T00:43:51;12.35;;;6.05;;
23596;SDS011;40226;50.874;4.394;2023-05-07T00:46:17;11.60;;;5.97;;
23596;SDS011;40226;50.874;4.394;2023-05-07T00:48:45;13.75;;;5.63;;
23596;SDS011;40226;50.874;4.394;2023-05-07T00:51:11;13.32;;;5.80;;
23596;SDS011;40226;50.874;4.394;2023-05-07T00:53:37;10.75;;;5.63;;
23596;SDS011;40226;50.874;4.394;2023-05-07T00:56:04;11.73;;;5.55;;
23596;SDS011;40226;50.874;4.394;2023-05-07T00:58:31;15.63;;;5.85;;
23596;SDS011;40226;50.874;4.394;2023-05-07T01:00:57;15.32;;;5.80;;
23596;SDS011;40226;50.874;4.394;2023-05-07T01:03:23;10.75;;;5.68;;
23596;SDS011;40226;50.874;4.394;2023-05-07T01:05:48;14.13;;;6.38;;
23596;SDS011;40226;50.874;4.394;2023-05-07T01:08:15;12.15;;;5.25;;
23596;SDS011;40226;50.874;4.394;2023-05-07T01:10:41;15.55;;;5.30;;
23596;SDS011;40226;50.874;4.394;2023-05-07T01:13:08;11.88;;;5.57;;
23596;SDS011;40226;50.874;4.394;2023-05-07T01:15:35;13.48;;;5.13;;
23596;SDS011;40226;50.874;4.394;2023-05-07T01:18:01;16.23;;;5.75;;
23596;SDS011;40226;50.874;4.394;2023-05-07T01:20:27;14.15;;;4.90;;
23596;SDS011;40226;50.874;4.394;2023-05-07T01:22:53;12.35;;;5.10;;
23596;SDS011;40226;50.874;4.394;2023-05-07T01:25:20;10.90;;;4.82;;
23596;SDS011;40226;50.874;4.394;2023-05-07T01:27:47;10.35;;;4.68;;
23596;SDS011;40226;50.874;4.394;2023-05-07T01:30:12;8.25;;;4.75;;
23596;SDS011;40226;50.874;4.394;2023-05-07T01:32:49;9.65;;;4.80;;
23596;SDS011;40226;50.874;4.394;2023-05-07T01:35:19;12.07;;;4.85;;
23596;SDS011;40226;50.874;4.394;2023-05-07T01:37:47;8.85;;;4.72;;
23596;SDS011;40226;50.874;4.394;2023-05-07T01:40:14;11.20;;;4.47;;
23596;SDS011;40226;50.874;4.394;2023-05-07T01:42:40;9.07;;;4.30;;
23596;SDS011;40226;50.874;4.394;2023-05-07T01:45:08;11.10;;;4.70;;
23596;SDS011;40226;50.874;4.394;2023-05-07T01:47:34;11.00;;;4.82;;
23596;SDS011;40226;50.874;4.394;2023-05-07T01:50:01;13.55;;;4.78;;
23596;SDS011;40226;50.874;4.394;2023-05-07T01:52:27;10.25;;;5.22;;
23596;SDS011;40226;50.874;4.394;2023-05-07T01:54:53;14.88;;;5.40;;
23596;SDS011;40226;50.874;4.394;2023-05-07T01:57:19;12.85;;;5.57;;
23596;SDS011;40226;50.874;4.394;2023-05-07T01:59:44;15.32;;;6.28;;
23596;SDS011;40226;50.874;4.394;2023-05-07T02:02:10;15.40;;;6.32;;
23596;SDS011;40226;50.874;4.394;2023-05-07T02:04:36;14.82;;;5.38;;
23596;SDS011;40226;50.874;4.394;2023-05-07T02:07:01;11.07;;;5.28;;
23596;SDS011;40226;50.874;4.394;2023-05-07T02:09:27;9.38;;;5.10;;
23596;SDS011;40226;50.874;4.394;2023-05-07T02:11:53;12.38;;;5.72;;
23596;SDS011;40226;50.874;4.394;2023-05-07T02:14:18;15.32;;;5.28;;
23596;SDS011;40226;50.874;4.394;2023-05-07T02:16:45;13.45;;;4.90;;
23596;SDS011;40226;50.874;4.394;2023-05-07T02:19:12;10.25;;;5.00;;
23596;SDS011;40226;50.874;4.394;2023-05-07T02:21:37;13.82;;;5.60;;
23596;SDS011;40226;50.874;4.394;2023-05-07T02:24:03;33.28;;;20.02;;
23596;SDS011;40226;50.874;4.394;2023-05-07T02:26:29;14.07;;;5.78;;
23596;SDS011;40226;50.874;4.394;2023-05-07T02:28:54;11.50;;;4.95;;
23596;SDS011;40226;50.874;4.394;2023-05-07T02:31:24;13.80;;;5.20;;
23596;SDS011;40226;50.874;4.394;2023-05-07T02:33:50;12.57;;;5.72;;
23596;SDS011;40226;50.874;4.394;2023-05-07T02:36:15;16.17;;;5.57;;
23596;SDS011;40226;50.874;4.394;2023-05-07T02:38:41;10.98;;;5.22;;
23596;SDS011;40226;50.874;4.394;2023-05-07T02:41:07;12.70;;;5.82;;
23596;SDS011;40226;50.874;4.394;2023-05-07T02:43:32;14.82;;;5.55;;
23596;SDS011;40226;50.874;4.394;2023-05-07T02:46:05;13.40;;;6.22;;
23596;SDS011;40226;50.874;4.394;2023-05-07T02:48:32;16.05;;;5.60;;
23596;SDS011;40226;50.874;4.394;2023-05-07T02:50:58;16.48;;;6.57;;
23596;SDS011;40226;50.874;4.394;2023-05-07T02:53:24;13.23;;;6.05;;
23596;SDS011;40226;50.874;4.394;2023-05-07T02:55:57;11.88;;;6.70;;
23596;SDS011;40226;50.874;4.394;2023-05-07T02:58:25;13.13;;;6.10;;
23596;SDS011;40226;50.874;4.394;2023-05-07T03:00:51;13.30;;;6.22;;
23596;SDS011;40226;50.874;4.394;2023-05-07T03:03:17;15.10;;;6.25;;
23596;SDS011;40226;50.874;4.394;2023-05-07T03:05:42;15.48;;;6.45;;
23596;SDS011;40226;50.874;4.394;2023-05-07T03:08:08;16.40;;;6.60;;
23596;SDS011;40226;50.874;4.394;2023-05-07T03:10:35;14.93;;;5.70;;
23596;SDS011;40226;50.874;4.394;2023-05-07T03:13:01;13.48;;;5.93;;
23596;SDS011;40226;50.874;4.394;2023-05-07T03:15:27;12.98;;;6.25;;
23596;SDS011;40226;50.874;4.394;2023-05-07T03:17:53;13.30;;;5.90;;
23596;SDS011;40226;50.874;4.394;2023-05-07T03:20:18;16.70;;;6.05;;
23596;SDS011;40226;50.874;4.394;2023-05-07T03:22:44;16.77;;;5.78;;
23596;SDS011;40226;50.874;4.394;2023-05-07T03:25:10;14.23;;;5.88;;
23596;SDS011;40226;50.874;4.394;2023-05-07T03:27:36;15.75;;;5.97;;
23596;SDS011;40226;50.874;4.394;2023-05-07T03:30:01;11.90;;;5.82;;
23596;SDS011;40226;50.874;4.394;2023-05-07T03:32:28;15.32;;;6.80;;
23596;SDS011;40226;50.874;4.394;2023-05-07T03:34:53;14.52;;;6.53;;
23596;SDS011;40226;50.874;4.394;2023-05-07T03:37:20;15.38;;;6.22;;
23596;SDS011;40226;50.874;4.394;2023-05-07T03:39:46;13.82;;;6.30;;
23596;SDS011;40226;50.874;4.394;2023-05-07T03:42:12;13.23;;;5.88;;
23596;SDS011;40226;50.874;4.394;2023-05-07T03:44:38;12.65;;;5.82;;
23596;SDS011;40226;50.874;4.394;2023-05-07T03:47:04;15.57;;;5.85;;
23596;SDS011;40226;50.874;4.394;2023-05-07T03:49:29;14.43;;;6.28;;
23596;SDS011;40226;50.874;4.394;2023-05-07T03:51:55;15.77;;;6.38;;
23596;SDS011;40226;50.874;4.394;2023-05-07T03:54:21;13.52;;;6.00;;
23596;SDS011;40226;50.874;4.394;2023-05-07T03:56:47;14.93;;;5.75;;
23596;SDS011;40226;50.874;4.394;2023-05-07T03:59:12;19.05;;;5.65;;
23596;SDS011;40226;50.874;4.394;2023-05-07T04:01:39;13.45;;;5.80;;
23596;SDS011;40226;50.874;4.394;2023-05-07T04:04:05;15.48;;;6.07;;
23596;SDS011;40226;50.874;4.394;2023-05-07T04:06:31;14.43;;;5.38;;
23596;SDS011;40226;50.874;4.394;2023-05-07T04:08:57;18.00;;;6.10;;
23596;SDS011;40226;50.874;4.394;2023-05-07T04:11:22;15.07;;;5.93;;
23596;SDS011;40226;50.874;4.394;2023-05-07T04:13:48;14.15;;;6.10;;
23596;SDS011;40226;50.874;4.394;2023-05-07T04:16:14;14.75;;;6.47;;
23596;SDS011;40226;50.874;4.394;2023-05-07T04:18:39;12.25;;;6.45;;
23596;SDS011;40226;50.874;4.394;2023-05-07T04:21:13;15.10;;;6.10;;
23596;SDS011;40226;50.874;4.394;2023-05-07T04:23:42;13.57;;;6.45;;
23596;SDS011;40226;50.874;4.394;2023-05-07T04:26:08;14.07;;;6.07;;
23596;SDS011;40226;50.874;4.394;2023-05-07T04:28:34;14.05;;;6.70;;
23596;SDS011;40226;50.874;4.394;2023-05-07T04:31:00;18.85;;;6.15;;
23596;SDS011;40226;50.874;4.394;2023-05-07T04:33:26;11.80;;;5.90;;
23596;SDS011;40226;50.874;4.394;2023-05-07T04:35:51;14.90;;;6.57;;
23596;SDS011;40226;50.874;4.394;2023-05-07T04:38:17;11.70;;;6.40;;
23596;SDS011;40226;50.874;4.394;2023-05-07T04:40:43;15.15;;;6.20;;
23596;SDS011;40226;50.874;4.394;2023-05-07T04:43:09;11.13;;;6.07;;
23596;SDS011;40226;50.874;4.394;2023-05-07T04:45:35;15.65;;;6.80;;
23596;SDS011;40226;50.874;4.394;2023-05-07T04:48:01;12.10;;;6.35;;
23596;SDS011;40226;50.874;4.394;2023-05-07T04:50:27;18.40;;;6.32;;
23596;SDS011;40226;50.874;4.394;2023-05-07T04:52:53;14.48;;;6.90;;
23596;SDS011;40226;50.874;4.394;2023-05-07T04:55:18;12.13;;;6.00;;
23596;SDS011;40226;50.874;4.394;2023-05-07T04:57:44;15.32;;;6.75;;
23596;SDS011;40226;50.874;4.394;2023-05-07T05:00:10;17.10;;;6.65;;
23596;SDS011;40226;50.874;4.394;2023-05-07T05:02:39;14.13;;;6.20;;
23596;SDS011;40226;50.874;4.394;2023-05-07T05:05:05;13.38;;;6.38;;
23596;SDS011;40226;50.874;4.394;2023-05-07T05:07:31;14.60;;;6.68;;
23596;SDS011;40226;50.874;4.394;2023-05-07T05:09:57;13.77;;;6.70;;
23596;SDS011;40226;50.874;4.394;2023-05-07T05:12:23;19.15;;;6.90;;
23596;SDS011;40226;50.874;4.394;2023-05-07T05:14:49;15.40;;;6.78;;
23596;SDS011;40226;50.874;4.394;2023-05-07T05:17:14;15.07;;;6.78;;
23596;SDS011;40226;50.874;4.394;2023-05-07T05:19:40;13.98;;;7.30;;
23596;SDS011;40226;50.874;4.394;2023-05-07T05:22:06;17.08;;;7.10;;
23596;SDS011;40226;50.874;4.394;2023-05-07T05:24:32;17.90;;;7.55;;
23596;SDS011;40226;50.874;4.394;2023-05-07T05:26:57;13.88;;;6.65;;
23596;SDS011;40226;50.874;4.394;2023-05-07T05:29:26;15.02;;;6.68;;
23596;SDS011;40226;50.874;4.394;2023-05-07T05:31:51;14.43;;;6.82;;
23596;SDS011;40226;50.874;4.394;2023-05-07T05:34:17;14.73;;;6.55;;
23596;SDS011;40226;50.874;4.394;2023-05-07T05:36:44;14.75;;;7.05;;
23596;SDS011;40226;50.874;4.394;2023-05-07T05:39:10;15.57;;;7.00;;
23596;SDS011;40226;50.874;4.394;2023-05-07T05:41:36;17.73;;;6.95;;
23596;SDS011;40226;50.874;4.394;2023-05-07T05:44:02;16.85;;;7.15;;
23596;SDS011;40226;50.874;4.394;2023-05-07T05:46:27;15.20;;;6.78;;
23596;SDS011;40226;50.874;4.394;2023-05-07T05:48:53;16.38;;;7.68;;
23596;SDS011;40226;50.874;4.394;2023-05-07T05:51:18;16.17;;;7.50;;
23596;SDS011;40226;50.874;4.394;2023-05-07T05:53:45;16.15;;;7.97;;
23596;SDS011;40226;50.874;4.394;2023-05-07T05:56:12;16.42;;;7.20;;
23596;SDS011;40226;50.874;4.394;2023-05-07T05:58:38;19.42;;;6.95;;
23596;SDS011;40226;50.874;4.394;2023-05-07T06:01:03;16.50;;;7.78;;
23596;SDS011;40226;50.874;4.394;2023-05-07T06:03:30;16.02;;;8.15;;
23596;SDS011;40226;50.874;4.394;2023-05-07T06:05:57;14.88;;;7.72;;
23596;SDS011;40226;50.874;4.394;2023-05-07T06:08:23;14.30;;;7.97;;
23596;SDS011;40226;50.874;4.394;2023-05-07T06:10:48;15.27;;;7.45;;
23596;SDS011;40226;50.874;4.394;2023-05-07T06:13:14;14.88;;;6.93;;
23596;SDS011;40226;50.874;4.394;2023-05-07T06:15:40;12.60;;;6.30;;
23596;SDS011;40226;50.874;4.394;2023-05-07T06:18:05;15.45;;;6.65;;
23596;SDS011;40226;50.874;4.394;2023-05-07T06:20:31;17.33;;;5.70;;
23596;SDS011;40226;50.874;4.394;2023-05-07T06:22:57;17.52;;;6.03;;
23596;SDS011;40226;50.874;4.394;2023-05-07T06:25:22;15.05;;;5.85;;
23596;SDS011;40226;50.874;4.394;2023-05-07T06:27:52;14.50;;;6.07;;
23596;SDS011;40226;50.874;4.394;2023-05-07T06:30:17;20.30;;;6.30;;
23596;SDS011;40226;50.874;4.394;2023-05-07T06:32:43;14.60;;;5.78;;
23596;SDS011;40226;50.874;4.394;2023-05-07T06:35:09;11.65;;;6.10;;
23596;SDS011;40226;50.874;4.394;2023-05-07T06:37:34;16.25;;;5.70;;
23596;SDS011;40226;50.874;4.394;2023-05-07T06:40:00;14.63;;;5.43;;
23596;SDS011;40226;50.874;4.394;2023-05-07T06:42:25;16.80;;;5.90;;
23596;SDS011;40226;50.874;4.394;2023-05-07T06:44:51;13.68;;;5.78;;
23596;SDS011;40226;50.874;4.394;2023-05-07T06:47:20;12.45;;;5.88;;
23596;SDS011;40226;50.874;4.394;2023-05-07T06:49:45;12.75;;;5.60;;
23596;SDS011;40226;50.874;4.394;2023-05-07T06:52:11;14.48;;;5.68;;
23596;SDS011;40226;50.874;4.394;2023-05-07T06:54:36;16.73;;;5.78;;
23596;SDS011;40226;50.874;4.394;2023-05-07T06:57:02;14.65;;;5.45;;
23596;SDS011;40226;50.874;4.394;2023-05-07T06:59:28;13.80;;;6.18;;
23596;SDS011;40226;50.874;4.394;2023-05-07T07:01:54;11.65;;;5.50;;
23596;SDS011;40226;50.874;4.394;2023-05-07T07:04:20;12.95;;;5.57;;
23596;SDS011;40226;50.874;4.394;2023-05-07T07:06:48;13.82;;;5.75;;
23596;SDS011;40226;50.874;4.394;2023-05-07T07:09:13;13.93;;;5.45;;
23596;SDS011;40226;50.874;4.394;2023-05-07T07:11:39;13.80;;;5.90;;
23596;SDS011;40226;50.874;4.394;2023-05-07T07:14:05;15.52;;;5.43;;
23596;SDS011;40226;50.874;4.394;2023-05-07T07:16:30;18.20;;;6.53;;
23596;SDS011;40226;50.874;4.394;2023-05-07T07:18:56;12.77;;;5.55;;
23596;SDS011;40226;50.874;4.394;2023-05-07T07:21:21;12.13;;;5.88;;
23596;SDS011;40226;50.874;4.394;2023-05-07T07:23:47;14.48;;;6.32;;
23596;SDS011;40226;50.874;4.394;2023-05-07T07:26:13;11.55;;;6.32;;
23596;SDS011;40226;50.874;4.394;2023-05-07T07:28:42;13.25;;;6.47;;
23596;SDS011;40226;50.874;4.394;2023-05-07T07:31:08;15.18;;;6.63;;
23596;SDS011;40226;50.874;4.394;2023-05-07T07:33:34;14.10;;;6.72;;
23596;SDS011;40226;50.874;4.394;2023-05-07T07:36:00;16.23;;;6.45;;
23596;SDS011;40226;50.874;4.394;2023-05-07T07:38:25;14.60;;;7.05;;
23596;SDS011;40226;50.874;4.394;2023-05-07T07:40:51;14.77;;;6.40;;
23596;SDS011;40226;50.874;4.394;2023-05-07T07:43:17;17.33;;;6.70;;
23596;SDS011;40226;50.874;4.394;2023-05-07T07:45:42;12.32;;;6.20;;
23596;SDS011;40226;50.874;4.394;2023-05-07T07:48:08;15.20;;;6.43;;
23596;SDS011;40226;50.874;4.394;2023-05-07T07:50:34;11.07;;;5.90;;
23596;SDS011;40226;50.874;4.394;2023-05-07T07:53:00;12.50;;;6.30;;
23596;SDS011;40226;50.874;4.394;2023-05-07T07:55:25;14.32;;;6.10;;
23596;SDS011;40226;50.874;4.394;2023-05-07T07:57:52;14.95;;;6.10;;
23596;SDS011;40226;50.874;4.394;2023-05-07T08:00:17;12.07;;;5.82;;
23596;SDS011;40226;50.874;4.394;2023-05-07T08:02:43;11.98;;;5.72;;
23596;SDS011;40226;50.874;4.394;2023-05-07T08:05:09;16.02;;;7.03;;
23596;SDS011;40226;50.874;4.394;2023-05-07T08:07:35;21.42;;;7.18;;
23596;SDS011;40226;50.874;4.394;2023-05-07T08:10:01;15.73;;;7.18;;
23596;SDS011;40226;50.874;4.394;2023-05-07T08:12:27;16.42;;;7.43;;
23596;SDS011;40226;50.874;4.394;2023-05-07T08:14:53;12.23;;;6.93;;
23596;SDS011;40226;50.874;4.394;2023-05-07T08:17:18;17.55;;;6.80;;
23596;SDS011;40226;50.874;4.394;2023-05-07T08:19:47;11.90;;;6.80;;
23596;SDS011;40226;50.874;4.394;2023-05-07T08:22:13;14.18;;;6.60;;
23596;SDS011;40226;50.874;4.394;2023-05-07T08:24:39;12.45;;;6.45;;
23596;SDS011;40226;50.874;4.394;2023-05-07T08:27:05;12.20;;;7.30;;
23596;SDS011;40226;50.874;4.394;2023-05-07T08:29:30;9.93;;;6.28;;
23596;SDS011;40226;50.874;4.394;2023-05-07T08:31:56;16.25;;;6.75;;
23596;SDS011;40226;50.874;4.394;2023-05-07T08:34:22;18.23;;;7.20;;
23596;SDS011;40226;50.874;4.394;2023-05-07T08:36:47;13.27;;;6.88;;
23596;SDS011;40226;50.874;4.394;2023-05-07T08:39:14;14.80;;;7.40;;
23596;SDS011;40226;50.874;4.394;2023-05-07T08:41:42;14.48;;;6.90;;
23596;SDS011;40226;50.874;4.394;2023-05-07T08:44:11;14.70;;;7.43;;
23596;SDS011;40226;50.874;4.394;2023-05-07T08:46:39;15.27;;;7.13;;
23596;SDS011;40226;50.874;4.394;2023-05-07T08:49:06;14.02;;;7.15;;
23596;SDS011;40226;50.874;4.394;2023-05-07T08:51:32;16.15;;;7.53;;
23596;SDS011;40226;50.874;4.394;2023-05-07T08:53:58;15.52;;;7.88;;
23596;SDS011;40226;50.874;4.394;2023-05-07T08:56:26;15.45;;;8.30;;
23596;SDS011;40226;50.874;4.394;2023-05-07T08:58:51;16.63;;;8.68;;
23596;SDS011;40226;50.874;4.394;2023-05-07T09:01:21;16.83;;;7.95;;
23596;SDS011;40226;50.874;4.394;2023-05-07T09:03:47;17.02;;;7.70;;
23596;SDS011;40226;50.874;4.394;2023-05-07T09:06:13;12.93;;;7.03;;
23596;SDS011;40226;50.874;4.394;2023-05-07T09:08:39;14.60;;;7.20;;
23596;SDS011;40226;50.874;4.394;2023-05-07T09:11:04;14.57;;;7.88;;
23596;SDS011;40226;50.874;4.394;2023-05-07T09:13:30;16.20;;;8.48;;
23596;SDS011;40226;50.874;4.394;2023-05-07T09:15:56;14.80;;;7.97;;
23596;SDS011;40226;50.874;4.394;2023-05-07T09:18:23;14.18;;;8.63;;
23596;SDS011;40226;50.874;4.394;2023-05-07T09:20:50;14.32;;;8.48;;
23596;SDS011;40226;50.874;4.394;2023-05-07T09:23:16;16.00;;;9.15;;
23596;SDS011;40226;50.874;4.394;2023-05-07T09:25:42;17.40;;;8.93;;
23596;SDS011;40226;50.874;4.394;2023-05-07T09:28:07;12.23;;;8.00;;
23596;SDS011;40226;50.874;4.394;2023-05-07T09:30:35;12.50;;;7.20;;
23596;SDS011;40226;50.874;4.394;2023-05-07T09:33:02;11.50;;;6.90;;
23596;SDS011;40226;50.874;4.394;2023-05-07T09:35:29;10.38;;;6.30;;
23596;SDS011;40226;50.874;4.394;2023-05-07T09:37:59;11.15;;;6.10;;
23596;SDS011;40226;50.874;4.394;2023-05-07T09:40:26;13.27;;;7.10;;
23596;SDS011;40226;50.874;4.394;2023-05-07T09:42:54;15.10;;;7.43;;
23596;SDS011;40226;50.874;4.394;2023-05-07T09:45:26;11.68;;;6.55;;
23596;SDS011;40226;50.874;4.394;2023-05-07T09:47:54;11.05;;;6.88;;
23596;SDS011;40226;50.874;4.394;2023-05-07T09:50:31;12.50;;;7.10;;
23596;SDS011;40226;50.874;4.394;2023-05-07T09:53:01;14.73;;;7.43;;
23596;SDS011;40226;50.874;4.394;2023-05-07T09:55:28;14.18;;;7.40;;
23596;SDS011;40226;50.874;4.394;2023-05-07T09:57:54;14.93;;;8.02;;
23596;SDS011;40226;50.874;4.394;2023-05-07T10:00:20;14.15;;;9.02;;
23596;SDS011;40226;50.874;4.394;2023-05-07T10:02:51;17.48;;;9.70;;
23596;SDS011;40226;50.874;4.394;2023-05-07T10:05:21;15.00;;;9.43;;
23596;SDS011;40226;50.874;4.394;2023-05-07T10:07:47;12.35;;;8.90;;
23596;SDS011;40226;50.874;4.394;2023-05-07T10:10:14;13.45;;;9.10;;
23596;SDS011;40226;50.874;4.394;2023-05-07T10:12:40;18.88;;;9.98;;
23596;SDS011;40226;50.874;4.394;2023-05-07T10:15:06;10.82;;;7.78;;
23596;SDS011;40226;50.874;4.394;2023-05-07T10:17:40;10.18;;;6.80;;
23596;SDS011;40226;50.874;4.394;2023-05-07T10:20:06;10.82;;;5.75;;
23596;SDS011;40226;50.874;4.394;2023-05-07T10:22:33;9.45;;;5.80;;
23596;SDS011;40226;50.874;4.394;2023-05-07T10:25:04;15.65;;;6.75;;
23596;SDS011;40226;50.874;4.394;2023-05-07T10:27:39;9.70;;;5.60;;
23596;SDS011;40226;50.874;4.394;2023-05-07T10:32:47;10.50;;;5.95;;
23596;SDS011;40226;50.874;4.394;2023-05-07T10:35:17;8.02;;;5.03;;
23596;SDS011;40226;50.874;4.394;2023-05-07T10:37:46;10.18;;;5.53;;
23596;SDS011;40226;50.874;4.394;2023-05-07T10:40:13;8.65;;;4.68;;
23596;SDS011;40226;50.874;4.394;2023-05-07T10:42:39;9.80;;;4.68;;
23596;SDS011;40226;50.874;4.394;2023-05-07T10:45:22;7.40;;;4.40;;
23596;SDS011;40226;50.874;4.394;2023-05-07T10:50:42;9.23;;;4.70;;
23596;SDS011;40226;50.874;4.394;2023-05-07T10:55:46;10.13;;;5.22;;
23596;SDS011;40226;50.874;4.394;2023-05-07T10:58:29;11.07;;;4.70;;
23596;SDS011;40226;50.874;4.394;2023-05-07T11:03:27;9.00;;;4.82;;
23596;SDS011;40226;50.874;4.394;2023-05-07T11:06:13;10.50;;;4.93;;
23596;SDS011;40226;50.874;4.394;2023-05-07T11:11:18;9.38;;;5.88;;
23596;SDS011;40226;50.874;4.394;2023-05-07T11:13:45;12.18;;;6.07;;
23596;SDS011;40226;50.874;4.394;2023-05-07T11:18:49;10.50;;;5.72;;
23596;SDS011;40226;50.874;4.394;2023-05-07T11:24:00;9.38;;;5.82;;
23596;SDS011;40226;50.874;4.394;2023-05-07T11:26:27;10.77;;;5.63;;
23596;SDS011;40226;50.874;4.394;2023-05-07T11:28:53;8.23;;;5.07;;
23596;SDS011;40226;50.874;4.394;2023-05-07T11:31:20;9.95;;;5.20;;
23596;SDS011;40226;50.874;4.394;2023-05-07T11:33:48;8.82;;;5.15;;
23596;SDS011;40226;50.874;4.394;2023-05-07T11:36:14;9.18;;;4.90;;
23596;SDS011;40226;50.874;4.394;2023-05-07T11:38:40;7.93;;;3.72;;
23596;SDS011;40226;50.874;4.394;2023-05-07T11:41:07;7.18;;;4.13;;
23596;SDS011;40226;50.874;4.394;2023-05-07T11:43:33;8.25;;;4.50;;
23596;SDS011;40226;50.874;4.394;2023-05-07T11:46:10;9.48;;;4.30;;
23596;SDS011;40226;50.874;4.394;2023-05-07T11:48:37;7.85;;;4.07;;
23596;SDS011;40226;50.874;4.394;2023-05-07T11:51:04;6.68;;;4.28;;
23596;SDS011;40226;50.874;4.394;2023-05-07T11:53:38;6.47;;;4.75;;
23596;SDS011;40226;50.874;4.394;2023-05-07T11:56:09;9.55;;;4.35;;
23596;SDS011;40226;50.874;4.394;2023-05-07T11:58:36;6.90;;;4.22;;
23596;SDS011;40226;50.874;4.394;2023-05-07T12:01:02;9.85;;;4.43;;
23596;SDS011;40226;50.874;4.394;2023-05-07T12:03:28;8.93;;;4.90;;
23596;SDS011;40226;50.874;4.394;2023-05-07T12:05:54;12.20;;;5.10;;
23596;SDS011;40226;50.874;4.394;2023-05-07T12:08:20;8.20;;;4.78;;
23596;SDS011;40226;50.874;4.394;2023-05-07T12:10:49;6.82;;;4.32;;
23596;SDS011;40226;50.874;4.394;2023-05-07T12:13:20;7.30;;;4.50;;
23596;SDS011;40226;50.874;4.394;2023-05-07T12:15:46;9.63;;;4.72;;
23596;SDS011;40226;50.874;4.394;2023-05-07T12:18:16;8.35;;;4.50;;
23596;SDS011;40226;50.874;4.394;2023-05-07T12:20:42;5.57;;;3.53;;
23596;SDS011;40226;50.874;4.394;2023-05-07T12:23:08;6.68;;;3.42;;
23596;SDS011;40226;50.874;4.394;2023-05-07T12:25:37;5.45;;;3.47;;
23596;SDS011;40226;50.874;4.394;2023-05-07T12:28:07;7.28;;;3.70;;
23596;SDS011;40226;50.874;4.394;2023-05-07T12:30:39;7.13;;;3.60;;
23596;SDS011;40226;50.874;4.394;2023-05-07T12:33:05;10.50;;;5.43;;
23596;SDS011;40226;50.874;4.394;2023-05-07T12:35:32;11.95;;;6.38;;
23596;SDS011;40226;50.874;4.394;2023-05-07T12:38:08;8.00;;;5.15;;
23596;SDS011;40226;50.874;4.394;2023-05-07T12:40:46;7.75;;;4.97;;
23596;SDS011;40226;50.874;4.394;2023-05-07T12:43:16;9.25;;;3.92;;
23596;SDS011;40226;50.874;4.394;2023-05-07T12:45:53;6.45;;;4.05;;
23596;SDS011;40226;50.874;4.394;2023-05-07T12:48:20;5.68;;;3.40;;
23596;SDS011;40226;50.874;4.394;2023-05-07T12:50:53;5.72;;;3.78;;
23596;SDS011;40226;50.874;4.394;2023-05-07T12:53:20;5.43;;;3.92;;
23596;SDS011;40226;50.874;4.394;2023-05-07T12:55:47;7.00;;;4.22;;
23596;SDS011;40226;50.874;4.394;2023-05-07T12:58:15;6.85;;;4.40;;
23596;SDS011;40226;50.874;4.394;2023-05-07T13:00:52;6.82;;;4.90;;
23596;SDS011;40226;50.874;4.394;2023-05-07T13:05:49;7.45;;;4.60;;
23596;SDS011;40226;50.874;4.394;2023-05-07T13:08:35;6.68;;;4.60;;
23596;SDS011;40226;50.874;4.394;2023-05-07T13:11:08;6.18;;;5.55;;
23596;SDS011;40226;50.874;4.394;2023-05-07T13:13:35;8.57;;;6.00;;
23596;SDS011;40226;50.874;4.394;2023-05-07T13:16:02;9.57;;;6.63;;
23596;SDS011;40226;50.874;4.394;2023-05-07T13:18:29;8.77;;;6.47;;
23596;SDS011;40226;50.874;4.394;2023-05-07T13:20:56;8.98;;;6.88;;
23596;SDS011;40226;50.874;4.394;2023-05-07T13:23:22;9.18;;;7.03;;
23596;SDS011;40226;50.874;4.394;2023-05-07T13:25:48;7.50;;;6.72;;
23596;SDS011;40226;50.874;4.394;2023-05-07T13:28:14;11.02;;;7.32;;
23596;SDS011;40226;50.874;4.394;2023-05-07T13:30:40;9.07;;;6.80;;
23596;SDS011;40226;50.874;4.394;2023-05-07T13:33:06;11.27;;;7.38;;
23596;SDS011;40226;50.874;4.394;2023-05-07T13:35:32;9.27;;;7.30;;
23596;SDS011;40226;50.874;4.394;2023-05-07T13:37:57;8.32;;;6.88;;
23596;SDS011;40226;50.874;4.394;2023-05-07T13:40:23;8.93;;;7.40;;
23596;SDS011;40226;50.874;4.394;2023-05-07T13:42:50;14.20;;;8.95;;
23596;SDS011;40226;50.874;4.394;2023-05-07T13:45:16;9.95;;;7.97;;
23596;SDS011;40226;50.874;4.394;2023-05-07T13:47:43;11.93;;;8.75;;
23596;SDS011;40226;50.874;4.394;2023-05-07T13:50:09;11.13;;;9.20;;
23596;SDS011;40226;50.874;4.394;2023-05-07T13:52:36;13.15;;;10.48;;
23596;SDS011;40226;50.874;4.394;2023-05-07T13:55:02;14.27;;;10.80;;
23596;SDS011;40226;50.874;4.394;2023-05-07T13:57:29;15.02;;;10.85;;
23596;SDS011;40226;50.874;4.394;2023-05-07T13:59:54;13.40;;;11.25;;
23596;SDS011;40226;50.874;4.394;2023-05-07T14:02:20;15.48;;;12.77;;
23596;SDS011;40226;50.874;4.394;2023-05-07T14:04:46;15.00;;;12.68;;
23596;SDS011;40226;50.874;4.394;2023-05-07T14:07:11;16.35;;;13.63;;
23596;SDS011;40226;50.874;4.394;2023-05-07T14:09:37;17.55;;;13.57;;
23596;SDS011;40226;50.874;4.394;2023-05-07T14:12:03;16.55;;;13.38;;
23596;SDS011;40226;50.874;4.394;2023-05-07T14:14:29;17.45;;;14.10;;
23596;SDS011;40226;50.874;4.394;2023-05-07T14:16:55;14.88;;;12.80;;
23596;SDS011;40226;50.874;4.394;2023-05-07T14:19:21;14.95;;;12.90;;
23596;SDS011;40226;50.874;4.394;2023-05-07T14:21:47;13.73;;;12.00;;
23596;SDS011;40226;50.874;4.394;2023-05-07T14:24:13;14.25;;;12.70;;
23596;SDS011;40226;50.874;4.394;2023-05-07T14:26:39;13.90;;;12.43;;
23596;SDS011;40226;50.874;4.394;2023-05-07T14:29:05;16.05;;;12.75;;
23596;SDS011;40226;50.874;4.394;2023-05-07T14:31:31;14.40;;;12.15;;
23596;SDS011;40226;50.874;4.394;2023-05-07T14:33:57;12.57;;;10.90;;
23596;SDS011;40226;50.874;4.394;2023-05-07T14:36:23;13.68;;;10.93;;
23596;SDS011;40226;50.874;4.394;2023-05-07T14:38:51;13.38;;;11.48;;
23596;SDS011;40226;50.874;4.394;2023-05-07T14:41:19;13.45;;;11.50;;
23596;SDS011;40226;50.874;4.394;2023-05-07T14:43:46;12.52;;;11.23;;
23596;SDS011;40226;50.874;4.394;2023-05-07T14:46:18;15.85;;;11.77;;
23596;SDS011;40226;50.874;4.394;2023-05-07T14:48:46;14.60;;;13.05;;
23596;SDS011;40226;50.874;4.394;2023-05-07T14:51:12;14.25;;;12.32;;
23596;SDS011;40226;50.874;4.394;2023-05-07T14:53:38;16.95;;;12.43;;